Time;durP1;ratioP1;P1;durP2;ratioP2;P2;SDS_P1;SDS_P2;PMS_P1;PMS_P2;Temp;Humidity;BMP_temperature;BMP_pressure;BME280_temperature;BME280_humidity;BME280_pressure;Samples;Min_cycle;Max_cycle;Signal;HPM_P1;HPM_P2
2022/07/27 05:00:25;;;;;;;5.57;3.80;;;22.00;97.20;;;;;;1707661;28;20194;-75
2022/07/27 05:01:16;;;;;;;4.72;3.47;;;22.00;97.20;;;;;;1701183;29;20207;-75
2022/07/27 05:02:08;;;;;;;5.70;4.33;;;22.00;97.20;;;;;;1701348;29;20203;-75
2022/07/27 05:02:59;;;;;;;6.18;3.70;;;22.00;97.20;;;;;;1701277;29;20231;-75
2022/07/27 05:03:50;;;;;;;3.77;3.47;;;22.00;97.20;;;;;;1701483;29;20246;-75
2022/07/27 05:04:41;;;;;;;4.10;3.70;;;22.00;97.20;;;;;;1701428;29;20218;-75
2022/07/27 05:05:33;;;;;;;4.50;4.10;;;22.00;97.20;;;;;;1701275;29;20231;-75
2022/07/27 05:06:24;;;;;;;4.43;3.67;;;22.00;97.20;;;;;;1701327;29;20207;-75
2022/07/27 05:07:16;;;;;;;3.65;3.35;;;22.00;97.20;;;;;;1701075;29;20279;-75
2022/07/27 05:08:06;;;;;;;5.97;4.10;;;22.10;97.20;;;;;;1701461;29;20211;-75
2022/07/27 05:08:58;;;;;;;3.83;3.47;;;22.10;97.20;;;;;;1701369;29;20412;-75
2022/07/27 05:09:49;;;;;;;4.85;3.63;;;22.10;97.20;;;;;;1701286;29;20691;-75
2022/07/27 05:10:41;;;;;;;4.73;3.80;;;22.10;97.20;;;;;;1701233;29;20330;-75
2022/07/27 05:11:32;;;;;;;3.78;3.47;;;22.10;97.20;;;;;;1701469;29;20808;-75
2022/07/27 05:12:23;;;;;;;4.23;3.40;;;22.10;97.20;;;;;;1701245;29;20583;-75
2022/07/27 05:13:14;;;;;;;4.07;3.65;;;22.10;97.20;;;;;;1701381;29;20204;-75
2022/07/27 05:14:06;;;;;;;4.10;3.80;;;22.10;97.20;;;;;;1701368;29;20298;-75
2022/07/27 05:14:57;;;;;;;3.97;3.65;;;22.10;97.20;;;;;;1706408;29;20203;-75
2022/07/27 05:15:50;;;;;;;4.60;4.20;;;22.10;97.20;;;;;;1707666;28;20286;-75
2022/07/27 05:16:40;;;;;;;4.25;3.85;;;22.10;97.20;;;;;;1707558;28;20210;-75
2022/07/27 05:17:32;;;;;;;4.60;4.20;;;22.10;97.20;;;;;;1707809;28;20302;-75
2022/07/27 05:18:24;;;;;;;4.50;4.15;;;22.10;97.20;;;;;;1707782;28;20205;-75
2022/07/27 05:19:16;;;;;;;5.03;3.80;;;22.10;97.20;;;;;;1707672;28;20294;-75
2022/07/27 05:20:08;;;;;;;4.30;3.90;;;22.10;97.20;;;;;;1707878;28;20225;-74
2022/07/27 05:21:00;;;;;;;7.35;4.10;;;22.10;97.20;;;;;;1707843;28;20204;-74
2022/07/27 05:21:51;;;;;;;4.28;3.92;;;22.10;97.20;;;;;;1707826;28;20628;-74
2022/07/27 05:22:43;;;;;;;4.10;3.77;;;22.10;97.20;;;;;;1707715;28;20301;-75
2022/07/27 05:23:34;;;;;;;5.75;4.10;;;22.10;97.20;;;;;;1707794;28;20225;-74
2022/07/27 05:24:26;;;;;;;5.03;4.18;;;22.10;97.20;;;;;;1707779;28;20563;-74
2022/07/27 05:25:16;;;;;;;4.60;3.90;;;22.10;97.20;;;;;;1707841;28;20207;-75
2022/07/27 05:26:08;;;;;;;3.90;3.60;;;22.10;97.20;;;;;;1707789;28;20282;-75
2022/07/27 05:26:59;;;;;;;4.60;4.20;;;22.10;97.20;;;;;;1707534;28;20682;-75
2022/07/27 05:27:51;;;;;;;6.10;3.67;;;22.10;97.20;;;;;;1707692;28;20722;-75
2022/07/27 05:28:42;;;;;;;4.22;3.80;;;22.10;97.20;;;;;;1707894;28;20214;-75
2022/07/27 05:29:37;;;;;;;4.63;4.20;;;22.10;97.20;;;;;;1707852;28;20575;-75
2022/07/27 05:30:28;;;;;;;3.53;3.23;;;22.10;97.20;;;;;;1708002;28;20210;-75
2022/07/27 05:31:21;;;;;;;3.90;3.60;;;22.10;97.20;;;;;;1707517;28;20481;-75
2022/07/27 05:32:12;;;;;;;4.30;3.90;;;22.10;97.20;;;;;;1707782;28;20442;-74
2022/07/27 05:33:04;;;;;;;4.83;4.10;;;22.10;97.20;;;;;;1707486;28;20501;-74
2022/07/27 05:33:55;;;;;;;3.93;3.63;;;22.10;97.20;;;;;;1707656;28;20203;-74
2022/07/27 05:34:46;;;;;;;6.00;3.80;;;22.10;97.20;;;;;;1707605;28;20489;-74
2022/07/27 05:35:37;;;;;;;6.03;4.55;;;22.10;97.20;;;;;;1707671;28;20446;-74
2022/07/27 05:36:30;;;;;;;4.83;3.97;;;22.10;97.20;;;;;;1707591;28;20293;-74
2022/07/27 05:37:20;;;;;;;4.25;3.85;;;22.20;97.20;;;;;;1707470;28;20214;-74
2022/07/27 05:38:12;;;;;;;4.43;4.03;;;22.20;97.20;;;;;;1707545;28;20294;-74
2022/07/27 05:39:03;;;;;;;4.15;3.85;;;22.20;97.20;;;;;;1707589;28;20214;-74
2022/07/27 05:39:55;;;;;;;3.87;3.57;;;22.20;97.20;;;;;;1707579;28;20286;-74
2022/07/27 05:40:46;;;;;;;4.05;3.67;;;22.20;97.20;;;;;;1707107;28;20450;-74
2022/07/27 05:41:38;;;;;;;4.45;4.03;;;22.20;97.20;;;;;;1707322;28;20289;-74
2022/07/27 05:42:29;;;;;;;3.67;3.38;;;22.20;97.20;;;;;;1707529;28;20289;-74
2022/07/27 05:43:20;;;;;;;6.28;4.22;;;22.20;97.20;;;;;;1707636;28;20191;-74
2022/07/27 05:44:11;;;;;;;4.00;3.70;;;22.20;97.20;;;;;;1707529;28;20678;-74
2022/07/27 05:45:03;;;;;;;4.20;3.60;;;22.30;97.20;;;;;;1707631;28;20633;-74
2022/07/27 05:45:54;;;;;;;3.92;3.63;;;22.30;97.20;;;;;;1707679;28;20293;-74
2022/07/27 05:46:47;;;;;;;3.80;3.50;;;22.30;97.20;;;;;;1707332;28;20209;-74
2022/07/27 05:47:38;;;;;;;4.63;4.15;;;22.30;97.20;;;;;;1707596;28;20666;-74
2022/07/27 05:48:30;;;;;;;4.50;4.20;;;22.30;97.20;;;;;;1707479;28;20612;-74
2022/07/27 05:49:21;;;;;;;4.07;3.67;;;22.30;97.20;;;;;;1707648;28;20585;-74
2022/07/27 05:50:13;;;;;;;4.57;4.17;;;22.30;97.20;;;;;;1707712;28;20289;-74
2022/07/27 05:51:04;;;;;;;6.53;4.35;;;22.30;97.20;;;;;;1707689;28;20202;-74
2022/07/27 05:51:56;;;;;;;4.30;3.90;;;22.30;97.20;;;;;;1707681;28;20572;-74
2022/07/27 05:53:40;;;;;;;4.47;4.07;;;22.30;97.20;;;;;;1697702;29;20470;-73
2022/07/27 05:54:31;;;;;;;4.00;3.70;;;22.30;97.20;;;;;;1700859;29;20572;-72
2022/07/27 05:55:23;;;;;;;5.73;3.60;;;22.30;97.20;;;;;;1701967;29;20223;-72
2022/07/27 05:56:14;;;;;;;5.03;3.80;;;22.30;97.20;;;;;;1700630;29;20689;-72
2022/07/27 05:57:06;;;;;;;4.90;4.40;;;22.30;97.20;;;;;;1700415;29;20269;-72
2022/07/27 05:57:56;;;;;;;4.20;3.78;;;22.30;97.20;;;;;;1694223;29;20207;-73
2022/07/27 05:58:48;;;;;;;5.63;3.67;;;22.30;97.20;;;;;;1694317;29;20204;-72
2022/07/27 05:59:39;;;;;;;4.32;3.92;;;22.30;97.20;;;;;;1694053;29;20224;-72
2022/07/27 06:00:31;;;;;;;4.00;3.47;;;22.30;97.20;;;;;;1694267;29;20290;-72
2022/07/27 06:01:22;;;;;;;4.28;3.60;;;22.30;97.20;;;;;;1694318;29;20459;-72
2022/07/27 06:02:15;;;;;;;5.82;4.20;;;22.30;97.20;;;;;;1694273;29;20687;-72
2022/07/27 06:03:06;;;;;;;4.13;3.83;;;22.30;97.20;;;;;;1694222;29;20601;-73
2022/07/27 06:03:58;;;;;;;4.73;4.03;;;22.30;97.20;;;;;;1694282;29;20295;-73
2022/07/27 06:04:48;;;;;;;4.15;3.75;;;22.30;97.20;;;;;;1694259;29;20212;-72
2022/07/27 06:05:40;;;;;;;4.03;3.63;;;22.30;97.20;;;;;;1694250;29;20290;-72
2022/07/27 06:07:58;;;;;;;4.50;3.70;;;22.30;97.20;;;;;;1694426;29;20199;-72
2022/07/27 06:08:49;;;;;;;4.13;3.83;;;22.30;97.20;;;;;;1694399;29;20627;-72
2022/07/27 06:09:41;;;;;;;4.97;3.77;;;22.30;97.20;;;;;;1698275;29;20636;-72
2022/07/27 06:10:34;;;;;;;5.40;4.38;;;22.30;97.20;;;;;;1700807;29;20285;-72
2022/07/27 06:11:26;;;;;;;5.40;4.05;;;22.30;97.20;;;;;;1700620;29;20202;-73
2022/07/27 06:12:17;;;;;;;4.32;3.92;;;22.30;97.20;;;;;;1701026;29;20238;-74
2022/07/27 06:13:10;;;;;;;4.60;4.20;;;22.30;97.20;;;;;;1700761;29;20218;-73
2022/07/27 06:14:01;;;;;;;4.57;4.18;;;22.30;97.20;;;;;;1700845;29;20214;-72
2022/07/27 06:14:52;;;;;;;4.03;3.63;;;22.30;97.20;;;;;;1700764;29;20298;-72
2022/07/27 06:15:43;;;;;;;4.53;4.13;;;22.30;97.20;;;;;;1700762;29;20202;-72
2022/07/27 06:16:35;;;;;;;4.33;3.93;;;22.30;97.20;;;;;;1700495;29;20239;-73
2022/07/27 06:17:27;;;;;;;3.97;3.50;;;22.30;97.20;;;;;;1700813;29;20215;-72
2022/07/27 06:18:19;;;;;;;4.30;3.90;;;22.40;97.20;;;;;;1700645;29;20203;-72
2022/07/27 06:19:09;;;;;;;4.60;4.20;;;22.40;97.20;;;;;;1700722;29;20214;-72
2022/07/27 06:20:03;;;;;;;5.37;4.03;;;22.40;97.20;;;;;;1700660;29;20266;-73
2022/07/27 06:20:53;;;;;;;4.63;3.85;;;22.40;97.20;;;;;;1700696;29;20210;-72
2022/07/27 06:21:45;;;;;;;7.40;3.90;;;22.40;97.20;;;;;;1700756;29;20238;-72
2022/07/27 06:22:48;;;;;;;6.80;3.67;;;22.40;97.20;;;;;;1700786;29;20207;-72
2022/07/27 06:23:39;;;;;;;6.63;4.28;;;22.50;97.20;;;;;;1700775;29;20203;-73
2022/07/27 06:24:30;;;;;;;7.18;3.40;;;22.50;97.20;;;;;;1700835;29;20200;-72
2022/07/27 06:25:23;;;;;;;4.20;3.83;;;22.50;97.20;;;;;;1700747;29;20667;-73
2022/07/27 06:26:14;;;;;;;6.30;4.57;;;22.50;97.20;;;;;;1700476;29;20195;-73
2022/07/27 06:27:06;;;;;;;4.90;4.50;;;22.50;97.20;;;;;;1700489;29;20217;-73
2022/07/27 06:27:56;;;;;;;8.13;4.85;;;22.50;97.20;;;;;;1700642;29;20215;-72
2022/07/27 06:28:48;;;;;;;5.00;4.10;;;22.50;97.20;;;;;;1700767;29;20747;-73
2022/07/27 06:29:39;;;;;;;6.70;5.00;;;22.50;97.20;;;;;;1700749;29;20211;-72
2022/07/27 06:30:32;;;;;;;6.37;4.43;;;22.50;97.20;;;;;;1700812;29;20282;-72
2022/07/27 06:31:23;;;;;;;6.45;4.70;;;22.50;97.20;;;;;;1700787;29;20470;-72
2022/07/27 06:32:15;;;;;;;5.18;4.40;;;22.60;97.20;;;;;;1700477;29;20263;-72
2022/07/27 06:33:08;;;;;;;6.40;4.15;;;22.50;97.20;;;;;;1700551;29;20246;-72
2022/07/27 06:33:59;;;;;;;5.10;4.70;;;22.60;97.20;;;;;;1700791;29;20647;-72
2022/07/27 06:34:51;;;;;;;4.77;4.40;;;22.60;97.20;;;;;;1700680;29;20683;-73
2022/07/27 06:35:41;;;;;;;6.13;4.53;;;22.60;97.20;;;;;;1700759;29;20203;-73
2022/07/27 06:36:33;;;;;;;6.93;4.17;;;22.60;97.20;;;;;;1700304;29;20205;-73
2022/07/27 06:37:26;;;;;;;4.57;4.18;;;22.60;97.20;;;;;;1700661;29;20226;-72
2022/07/27 06:38:18;;;;;;;15.82;4.50;;;22.60;97.20;;;;;;1700577;29;20706;-72
2022/07/27 06:39:08;;;;;;;4.20;3.80;;;22.60;97.20;;;;;;1700624;29;20199;-72
2022/07/27 06:40:00;;;;;;;4.57;4.17;;;22.60;97.20;;;;;;1700776;29;20234;-72
2022/07/27 06:40:52;;;;;;;5.35;4.18;;;22.60;97.20;;;;;;1700676;29;20207;-72
2022/07/27 06:41:44;;;;;;;4.50;4.07;;;22.60;97.20;;;;;;1700648;29;20231;-72
2022/07/27 06:42:35;;;;;;;5.43;4.47;;;22.60;97.20;;;;;;1700394;29;20211;-72
2022/07/27 06:43:28;;;;;;;4.30;3.80;;;22.70;97.20;;;;;;1700585;29;20364;-72
2022/07/27 06:44:19;;;;;;;4.57;3.60;;;22.70;97.20;;;;;;1700698;29;20203;-72
2022/07/27 06:45:11;;;;;;;4.43;4.13;;;22.70;97.20;;;;;;1700691;29;20368;-72
2022/07/27 06:46:02;;;;;;;6.13;3.90;;;22.70;97.20;;;;;;1700826;29;20211;-72
2022/07/27 06:46:54;;;;;;;4.47;3.85;;;22.70;97.20;;;;;;1700373;29;20659;-72
2022/07/27 06:47:45;;;;;;;4.32;3.72;;;22.70;97.20;;;;;;1700693;29;20995;-72
2022/07/27 06:48:38;;;;;;;4.07;3.73;;;22.80;97.20;;;;;;1700652;29;20366;-73
2022/07/27 06:49:29;;;;;;;7.65;4.28;;;22.80;97.20;;;;;;1700673;29;20626;-72
2022/07/27 06:50:21;;;;;;;4.43;4.03;;;22.80;97.20;;;;;;1700624;29;20719;-72
2022/07/27 06:51:12;;;;;;;4.40;4.00;;;22.80;97.20;;;;;;1700613;29;20202;-72
2022/07/27 06:52:04;;;;;;;5.43;3.90;;;22.80;97.20;;;;;;1700744;29;20297;-72
2022/07/27 06:52:55;;;;;;;5.00;4.10;;;22.80;97.20;;;;;;1701553;29;20215;-72
2022/07/27 06:53:46;;;;;;;6.03;4.53;;;22.80;97.20;;;;;;1702135;29;20286;-72
2022/07/27 06:54:37;;;;;;;4.22;3.70;;;22.80;97.20;;;;;;1701968;29;20214;-72
2022/07/27 06:55:29;;;;;;;4.27;3.87;;;22.90;97.20;;;;;;1701956;29;20290;-72
2022/07/27 06:56:21;;;;;;;4.22;3.92;;;22.90;97.20;;;;;;1701988;29;20199;-72
2022/07/27 06:57:12;;;;;;;6.83;4.00;;;22.90;97.20;;;;;;1701737;29;20575;-73
2022/07/27 06:58:03;;;;;;;4.72;4.30;;;22.90;97.20;;;;;;1701705;29;20451;-72
2022/07/27 06:58:55;;;;;;;5.25;4.85;;;22.90;97.20;;;;;;1701785;29;20620;-72
2022/07/27 06:59:46;;;;;;;9.10;4.35;;;22.90;97.20;;;;;;1701894;29;20577;-72
2022/07/27 07:00:38;;;;;;;4.60;4.20;;;22.90;97.20;;;;;;1702068;29;20654;-72
2022/07/27 07:01:29;;;;;;;5.20;4.70;;;22.90;97.20;;;;;;1704000;29;20226;-73
2022/07/27 07:02:20;;;;;;;7.00;4.70;;;22.90;97.20;;;;;;1705816;29;20227;-72
2022/07/27 07:03:11;;;;;;;4.40;4.00;;;22.90;97.20;;;;;;1705365;29;20238;-72
2022/07/27 07:04:05;;;;;;;4.67;4.27;;;23.00;97.20;;;;;;1705223;29;20462;-72
2022/07/27 07:04:57;;;;;;;4.80;4.40;;;23.00;97.20;;;;;;1703068;29;20210;-72
2022/07/27 07:05:48;;;;;;;4.55;4.20;;;23.00;97.20;;;;;;1701905;29;20207;-72
2022/07/27 07:06:40;;;;;;;4.60;4.20;;;23.00;97.20;;;;;;1701254;29;20199;-72
2022/07/27 07:07:31;;;;;;;7.05;4.82;;;23.00;97.20;;;;;;1701898;29;20203;-72
2022/07/27 07:08:22;;;;;;;6.07;4.20;;;23.00;97.20;;;;;;1701870;29;20286;-72
2022/07/27 07:09:13;;;;;;;4.43;3.85;;;23.00;97.20;;;;;;1701956;29;20211;-72
2022/07/27 07:10:06;;;;;;;4.10;3.73;;;23.10;97.20;;;;;;1701910;29;20282;-72
2022/07/27 07:10:57;;;;;;;4.20;3.90;;;23.10;97.20;;;;;;1701904;29;20234;-72
2022/07/27 07:11:49;;;;;;;4.17;3.87;;;23.10;97.20;;;;;;1701881;29;20203;-72
2022/07/27 07:12:40;;;;;;;5.05;4.55;;;23.10;97.20;;;;;;1701969;29;20969;-73
2022/07/27 07:13:32;;;;;;;5.70;4.43;;;23.20;97.20;;;;;;1701829;29;20644;-72
2022/07/27 07:14:24;;;;;;;5.43;4.93;;;23.10;97.20;;;;;;1701894;29;20338;-72
2022/07/27 07:15:16;;;;;;;4.63;4.15;;;23.10;97.20;;;;;;1701344;29;20202;-73
2022/07/27 07:16:07;;;;;;;6.95;4.93;;;23.20;97.20;;;;;;1701838;29;20215;-73
2022/07/27 07:17:00;;;;;;;5.30;4.40;;;23.20;97.20;;;;;;1701402;29;20274;-72
2022/07/27 07:17:51;;;;;;;6.30;5.00;;;23.20;97.20;;;;;;1701798;29;20309;-72
2022/07/27 07:18:43;;;;;;;8.63;4.87;;;23.20;97.20;;;;;;1701859;29;20663;-73
2022/07/27 07:19:35;;;;;;;7.85;5.30;;;23.20;97.20;;;;;;1701842;29;20836;-73
2022/07/27 07:20:27;;;;;;;8.43;4.90;;;23.20;97.20;;;;;;1701792;29;20239;-73
2022/07/27 07:21:17;;;;;;;5.47;4.93;;;23.20;97.20;;;;;;1701842;29;20206;-73
2022/07/27 07:22:09;;;;;;;5.97;4.93;;;23.20;97.20;;;;;;1701955;29;20438;-72
2022/07/27 07:23:00;;;;;;;4.80;4.40;;;23.20;97.20;;;;;;1701767;29;20597;-73
2022/07/27 07:23:52;;;;;;;5.38;3.53;;;23.20;97.20;;;;;;1701800;29;20203;-73
2022/07/27 07:24:43;;;;;;;5.97;4.40;;;23.20;97.20;;;;;;1701900;29;20215;-73
2022/07/27 07:25:35;;;;;;;5.23;4.73;;;23.20;97.20;;;;;;1701803;29;20231;-73
2022/07/27 07:26:26;;;;;;;7.40;4.85;;;23.20;97.20;;;;;;1701793;29;20864;-72
2022/07/27 07:27:22;;;;;;;6.70;4.47;;;23.30;97.20;;;;;;1701585;29;20270;-73
2022/07/27 07:28:12;;;;;;;6.07;5.00;;;23.30;97.20;;;;;;1701691;29;20290;-72
2022/07/27 07:29:04;;;;;;;5.20;4.43;;;23.30;97.20;;;;;;1701853;29;20215;-73
2022/07/27 07:29:55;;;;;;;5.03;4.53;;;23.30;97.20;;;;;;1701779;29;20625;-72
2022/07/27 07:30:47;;;;;;;5.87;4.57;;;23.30;97.20;;;;;;1701853;29;20570;-72
2022/07/27 07:31:38;;;;;;;8.68;4.90;;;23.30;97.20;;;;;;1701508;29;20206;-72
2022/07/27 07:32:30;;;;;;;6.33;4.50;;;23.30;97.20;;;;;;1701843;29;20207;-72
2022/07/27 07:33:21;;;;;;;6.75;5.15;;;23.30;97.20;;;;;;1701750;29;20238;-72
2022/07/27 07:34:13;;;;;;;5.30;4.80;;;23.40;97.20;;;;;;1701688;29;20711;-73
2022/07/27 07:35:06;;;;;;;4.15;3.85;;;23.40;97.20;;;;;;1701772;29;20218;-73
2022/07/27 07:35:58;;;;;;;5.20;4.80;;;23.40;97.20;;;;;;1701723;29;20318;-73
2022/07/27 07:36:49;;;;;;;4.43;4.13;;;23.40;97.20;;;;;;1701580;29;20250;-73
2022/07/27 07:37:41;;;;;;;5.20;4.30;;;23.40;97.20;;;;;;1701691;29;20206;-73
2022/07/27 07:38:32;;;;;;;6.50;3.95;;;23.50;97.20;;;;;;1701749;29;20211;-73
2022/07/27 07:39:23;;;;;;;4.10;3.80;;;23.50;97.20;;;;;;1701814;29;20203;-72
2022/07/27 07:40:14;;;;;;;4.43;3.87;;;23.50;97.20;;;;;;1701623;29;20246;-72
2022/07/27 07:41:06;;;;;;;4.87;4.47;;;23.50;97.20;;;;;;1701699;29;20538;-73
2022/07/27 07:41:57;;;;;;;4.60;4.20;;;23.50;97.20;;;;;;1701712;29;20826;-73
2022/07/27 07:42:52;;;;;;;5.27;4.77;;;23.50;97.20;;;;;;1701627;29;20473;-72
2022/07/27 07:43:44;;;;;;;4.20;3.90;;;23.50;97.20;;;;;;1701823;29;20470;-72
2022/07/27 07:44:34;;;;;;;5.03;4.07;;;23.60;97.20;;;;;;1701608;29;20450;-72
2022/07/27 07:45:27;;;;;;;4.70;4.27;;;23.60;97.20;;;;;;1701652;29;20207;-72
2022/07/27 07:46:19;;;;;;;5.75;4.28;;;23.60;97.20;;;;;;1701675;29;20207;-72
2022/07/27 07:47:10;;;;;;;5.20;4.80;;;23.60;97.20;;;;;;1701407;29;20215;-72
2022/07/27 07:48:01;;;;;;;4.37;4.07;;;23.60;97.20;;;;;;1701038;29;20443;-72
2022/07/27 07:48:52;;;;;;;5.40;4.30;;;23.60;97.20;;;;;;1701642;29;20227;-72
2022/07/27 07:49:44;;;;;;;7.30;4.10;;;23.60;97.20;;;;;;1701877;29;20207;-73
2022/07/27 07:50:37;;;;;;;6.55;4.07;;;23.60;97.20;;;;;;1701669;29;20442;-72
2022/07/27 07:51:29;;;;;;;5.35;4.45;;;23.60;97.20;;;;;;1701813;29;20663;-72
2022/07/27 07:52:19;;;;;;;4.85;3.90;;;23.70;97.20;;;;;;1701606;29;20203;-72
2022/07/27 07:53:14;;;;;;;4.50;4.10;;;23.70;97.20;;;;;;1701515;29;20317;-72
2022/07/27 07:54:04;;;;;;;5.35;4.18;;;23.70;97.20;;;;;;1701624;29;20203;-72
2022/07/27 07:54:56;;;;;;;4.77;4.47;;;23.70;97.20;;;;;;1701594;29;20302;-72
2022/07/27 07:55:47;;;;;;;4.35;4.05;;;23.70;97.20;;;;;;1701521;29;20469;-72
2022/07/27 07:56:39;;;;;;;4.40;4.00;;;23.70;97.20;;;;;;1701482;29;20199;-72
2022/07/27 07:57:29;;;;;;;4.20;3.80;;;23.80;97.20;;;;;;1701541;29;20454;-72
2022/07/27 07:58:21;;;;;;;4.10;3.80;;;23.80;97.20;;;;;;1701535;29;20293;-72
2022/07/27 07:59:12;;;;;;;4.63;4.22;;;23.80;97.20;;;;;;1701606;29;20199;-72
2022/07/27 08:00:07;;;;;;;5.10;4.60;;;23.80;97.20;;;;;;1701597;29;20281;-72
2022/07/27 08:00:57;;;;;;;4.80;4.40;;;23.80;97.20;;;;;;1701631;29;20207;-73
2022/07/27 08:01:49;;;;;;;6.83;4.13;;;23.80;97.20;;;;;;1701592;29;20500;-72
2022/07/27 08:02:44;;;;;;;7.00;4.50;;;23.80;97.20;;;;;;1701619;29;20222;-72
2022/07/27 08:03:36;;;;;;;6.13;4.47;;;23.80;97.20;;;;;;1701262;29;20217;-72
2022/07/27 08:04:26;;;;;;;4.32;3.97;;;23.80;97.20;;;;;;1701317;29;20211;-73
2022/07/27 08:05:19;;;;;;;4.23;3.83;;;23.80;97.20;;;;;;1701496;29;20286;-73
2022/07/27 08:06:11;;;;;;;4.72;4.32;;;23.80;97.20;;;;;;1701569;29;20211;-72
2022/07/27 08:07:05;;;;;;;5.63;4.73;;;23.80;97.20;;;;;;1701349;29;20223;-72
2022/07/27 08:07:55;;;;;;;5.70;4.75;;;23.80;97.20;;;;;;1701600;29;20465;-73
2022/07/27 08:08:47;;;;;;;4.70;4.30;;;23.80;97.20;;;;;;1701527;29;20241;-73
2022/07/27 08:09:38;;;;;;;5.88;4.25;;;23.90;97.20;;;;;;1701575;29;20687;-73
2022/07/27 08:10:30;;;;;;;7.43;5.43;;;23.90;97.20;;;;;;1701549;29;20195;-73
2022/07/27 08:11:21;;;;;;;4.37;4.07;;;23.90;97.20;;;;;;1701587;29;20448;-72
2022/07/27 08:12:12;;;;;;;4.37;4.07;;;23.90;97.20;;;;;;1701452;29;20538;-72
2022/07/27 08:13:03;;;;;;;4.55;4.10;;;23.90;97.20;;;;;;1701457;29;20211;-72
2022/07/27 08:13:55;;;;;;;4.30;3.80;;;23.90;97.20;;;;;;1701527;29;20706;-72
2022/07/27 08:14:46;;;;;;;6.70;4.20;;;23.90;97.20;;;;;;1701511;29;20214;-73
2022/07/27 08:15:37;;;;;;;4.77;4.03;;;23.90;97.20;;;;;;1701468;29;20546;-72
2022/07/27 08:16:30;;;;;;;4.77;4.37;;;24.00;97.20;;;;;;1701447;29;20211;-72
2022/07/27 08:17:20;;;;;;;4.30;4.00;;;24.00;97.20;;;;;;1701235;29;20462;-72
2022/07/27 08:18:12;;;;;;;3.87;3.57;;;24.00;97.20;;;;;;1701438;29;20926;-72
2022/07/27 08:19:03;;;;;;;4.45;4.10;;;24.00;97.20;;;;;;1701470;29;20698;-72
2022/07/27 08:19:55;;;;;;;5.50;4.27;;;24.00;97.20;;;;;;1701498;29;20630;-72
2022/07/27 08:20:46;;;;;;;5.10;4.20;;;24.00;97.20;;;;;;1701166;29;20226;-73
2022/07/27 08:21:38;;;;;;;5.93;4.30;;;24.00;97.20;;;;;;1701554;29;20458;-72
2022/07/27 08:22:30;;;;;;;4.90;4.20;;;24.00;97.20;;;;;;1701418;29;20968;-73
2022/07/27 08:23:21;;;;;;;4.67;4.37;;;24.00;97.20;;;;;;1701390;29;20861;-72
2022/07/27 08:24:13;;;;;;;5.17;4.77;;;24.10;97.20;;;;;;1701457;29;20876;-72
2022/07/27 08:25:05;;;;;;;4.65;4.28;;;24.10;97.20;;;;;;1701489;29;20211;-72
2022/07/27 08:25:56;;;;;;;4.30;4.00;;;24.10;97.20;;;;;;1701417;29;20203;-72
2022/07/27 08:26:47;;;;;;;7.87;4.90;;;24.10;97.20;;;;;;1701242;29;20207;-73
2022/07/27 08:27:39;;;;;;;5.63;5.13;;;24.10;97.20;;;;;;1701443;29;20442;-72
2022/07/27 08:28:31;;;;;;;4.90;4.40;;;24.10;97.20;;;;;;1701389;29;20207;-73
2022/07/27 08:29:22;;;;;;;5.57;4.90;;;24.10;97.20;;;;;;1701482;29;20459;-72
2022/07/27 08:30:14;;;;;;;4.53;4.13;;;24.10;97.20;;;;;;1701472;29;20999;-72
2022/07/27 08:31:05;;;;;;;5.47;4.20;;;24.10;97.20;;;;;;1701389;29;20689;-73
2022/07/27 08:31:56;;;;;;;4.70;4.30;;;24.20;97.20;;;;;;1701395;29;20541;-73
2022/07/27 08:32:49;;;;;;;5.55;4.50;;;24.20;97.20;;;;;;1701288;29;20450;-73
2022/07/27 08:33:41;;;;;;;5.53;3.90;;;24.20;97.20;;;;;;1701559;29;20209;-73
2022/07/27 08:34:32;;;;;;;4.63;4.20;;;24.20;97.20;;;;;;1701516;29;20678;-72
2022/07/27 08:35:24;;;;;;;4.20;3.80;;;24.20;97.20;;;;;;1701462;29;20443;-73
2022/07/27 08:36:15;;;;;;;5.53;4.20;;;24.20;97.20;;;;;;1701253;29;20443;-73
2022/07/27 08:37:09;;;;;;;4.50;4.00;;;24.20;97.20;;;;;;1700707;29;20502;-72
2022/07/27 08:38:02;;;;;;;4.70;4.20;;;24.20;97.20;;;;;;1701354;29;20931;-72
2022/07/27 08:38:52;;;;;;;4.93;4.50;;;24.20;97.20;;;;;;1701126;29;20474;-73
2022/07/27 08:39:44;;;;;;;5.43;4.50;;;24.30;97.20;;;;;;1701472;29;20543;-72
2022/07/27 08:40:37;;;;;;;6.63;4.93;;;24.30;97.20;;;;;;1701230;29;20455;-73
2022/07/27 08:41:29;;;;;;;5.53;4.45;;;24.30;97.20;;;;;;1701327;29;20451;-72
2022/07/27 08:42:22;;;;;;;5.43;4.70;;;24.30;97.20;;;;;;1701356;29;20282;-72
2022/07/27 08:43:14;;;;;;;5.25;4.78;;;24.30;97.20;;;;;;1701200;29;20463;-72
2022/07/27 08:44:07;;;;;;;5.80;5.03;;;24.30;97.20;;;;;;1701324;29;20719;-72
2022/07/27 08:44:57;;;;;;;4.70;4.30;;;24.30;97.20;;;;;;1701325;29;20453;-72
2022/07/27 08:45:53;;;;;;;5.57;4.10;;;24.30;97.20;;;;;;1701396;29;20210;-73
2022/07/27 08:46:45;;;;;;;6.60;4.80;;;24.40;97.20;;;;;;1701141;29;20380;-72
2022/07/27 08:47:38;;;;;;;5.70;5.13;;;24.40;97.20;;;;;;1701338;29;20529;-72
2022/07/27 08:48:30;;;;;;;4.80;4.40;;;24.40;97.20;;;;;;1701390;29;20924;-73
2022/07/27 08:49:22;;;;;;;4.87;4.37;;;24.40;97.20;;;;;;1701300;29;20443;-73
2022/07/27 08:50:26;;;;;;;4.37;4.07;;;24.40;97.20;;;;;;1701263;29;20482;-72
2022/07/27 08:51:17;;;;;;;6.80;5.13;;;24.50;97.20;;;;;;1701328;29;20447;-72
2022/07/27 08:52:10;;;;;;;5.03;4.30;;;24.50;97.20;;;;;;1701267;29;20206;-72
2022/07/27 08:53:03;;;;;;;4.87;4.50;;;24.50;97.20;;;;;;1701029;29;20447;-72
2022/07/27 08:53:56;;;;;;;5.80;4.55;;;24.50;97.20;;;;;;1700961;29;20443;-72
2022/07/27 08:54:46;;;;;;;6.47;5.25;;;24.50;97.20;;;;;;1701313;29;20306;-73
2022/07/27 08:55:41;;;;;;;5.80;4.73;;;24.60;97.20;;;;;;1701274;29;20203;-72
2022/07/27 08:56:33;;;;;;;4.80;4.10;;;24.60;97.20;;;;;;1700975;29;20940;-72
2022/07/27 08:57:23;;;;;;;4.90;4.50;;;24.60;97.20;;;;;;1701315;29;20686;-72
2022/07/27 08:58:17;;;;;;;4.40;4.00;;;24.60;97.20;;;;;;1701202;29;20915;-72
2022/07/27 08:59:08;;;;;;;4.30;4.00;;;24.70;97.20;;;;;;1701169;29;20223;-73
2022/07/27 09:00:00;;;;;;;5.00;4.60;;;24.70;97.20;;;;;;1701202;29;20471;-72
2022/07/27 09:00:52;;;;;;;5.40;5.00;;;24.70;97.20;;;;;;1701136;29;20483;-72
2022/07/27 09:01:43;;;;;;;4.53;4.23;;;24.80;97.20;;;;;;1701217;29;20451;-72
2022/07/27 09:02:36;;;;;;;4.70;4.30;;;24.80;97.20;;;;;;1701312;29;20530;-72
2022/07/27 09:03:28;;;;;;;5.50;5.00;;;24.90;97.20;;;;;;1701113;29;20242;-72
2022/07/27 09:04:19;;;;;;;4.78;4.22;;;24.90;97.20;;;;;;1701256;29;20821;-72
2022/07/27 09:05:11;;;;;;;5.70;4.73;;;24.90;97.20;;;;;;1701206;29;20290;-72
2022/07/27 09:06:03;;;;;;;5.03;4.53;;;25.00;97.20;;;;;;1701110;29;20667;-72
2022/07/27 09:06:54;;;;;;;5.37;4.87;;;25.00;97.20;;;;;;1700905;29;20911;-72
2022/07/27 09:07:47;;;;;;;6.10;5.50;;;25.00;97.20;;;;;;1701213;29;20835;-72
2022/07/27 09:08:40;;;;;;;5.37;4.87;;;25.10;97.20;;;;;;1701267;29;20203;-72
2022/07/27 09:09:43;;;;;;;5.97;4.93;;;25.10;97.20;;;;;;1701258;29;20933;-72
2022/07/27 09:10:37;;;;;;;5.70;5.10;;;25.10;97.20;;;;;;1700808;29;20451;-72
2022/07/27 09:11:28;;;;;;;5.18;4.68;;;25.10;97.20;;;;;;1701209;29;20526;-72
2022/07/27 09:12:27;;;;;;;5.20;4.70;;;25.10;97.20;;;;;;1701165;29;20203;-72
2022/07/27 09:13:21;;;;;;;4.73;4.43;;;25.10;97.20;;;;;;1701151;29;20227;-72
2022/07/27 09:14:13;;;;;;;5.53;4.70;;;25.10;97.20;;;;;;1701053;29;20478;-72
2022/07/27 09:15:07;;;;;;;5.60;5.03;;;25.10;97.20;;;;;;1700645;29;20469;-72
2022/07/27 09:16:00;;;;;;;5.00;4.50;;;25.10;97.20;;;;;;1700962;29;20451;-73
2022/07/27 09:16:52;;;;;;;5.32;4.80;;;25.10;97.20;;;;;;1700434;29;20203;-72
2022/07/27 09:17:45;;;;;;;4.50;4.10;;;25.10;97.20;;;;;;1701098;29;20207;-73
2022/07/27 09:18:37;;;;;;;6.00;4.37;;;25.10;97.20;;;;;;1700873;29;20460;-72
2022/07/27 09:19:29;;;;;;;5.13;4.73;;;25.10;97.20;;;;;;1701132;29;20461;-73
2022/07/27 09:20:20;;;;;;;5.57;5.17;;;25.20;97.20;;;;;;1701080;29;20454;-72
2022/07/27 09:21:15;;;;;;;4.63;4.23;;;25.20;97.20;;;;;;1701005;29;20487;-72
2022/07/27 09:22:06;;;;;;;4.40;4.00;;;25.20;97.20;;;;;;1701160;29;20447;-72
2022/07/27 09:23:00;;;;;;;4.80;4.43;;;25.20;97.20;;;;;;1701102;29;20913;-73
2022/07/27 09:23:53;;;;;;;4.90;4.50;;;25.20;97.20;;;;;;1701047;29;20450;-72
2022/07/27 09:25:01;;;;;;;5.80;5.00;;;25.20;97.20;;;;;;1701176;29;20455;-72
2022/07/27 09:26:09;;;;;;;4.60;4.20;;;25.20;97.20;;;;;;1701029;29;20451;-72
2022/07/27 09:27:02;;;;;;;6.10;4.90;;;25.20;97.20;;;;;;1700596;29;20290;-72
2022/07/27 09:27:55;;;;;;;4.60;4.03;;;25.20;97.20;;;;;;1700958;29;20213;-73
2022/07/27 09:28:51;;;;;;;5.60;4.45;;;25.30;97.20;;;;;;1701028;29;20454;-73
2022/07/27 09:29:43;;;;;;;4.77;4.30;;;25.30;97.20;;;;;;1701159;29;20266;-72
2022/07/27 09:30:42;;;;;;;4.80;4.40;;;25.30;97.20;;;;;;1701060;29;20811;-73
2022/07/27 09:31:41;;;;;;;6.23;4.77;;;25.30;97.20;;;;;;1701134;29;20499;-72
2022/07/27 09:32:32;;;;;;;5.27;4.77;;;25.30;97.20;;;;;;1701136;29;20447;-72
2022/07/27 09:33:24;;;;;;;6.83;5.40;;;25.30;97.20;;;;;;1700958;29;20522;-72